Airport Name : Akron Canton Rgnl

Other Name : Akron Canton

ICAO : KCAK

IATA :

FAA : CAK

Latitude : 40.916083

Longitude : -81.442194

Country : United States

Local Date and Time : 03 Dec 2020 05:43

 

TAF (Terminal Aerodrome Forecast)

KCAK 030526Z 0306/0406 24011KT P6SM SCT250

 

METAR (METeorological Aerodrome Report)

KCAK 030951Z 21009KT 6SM HZ FEW250 M03/M06 A3021 RMK AO2 SLP243 T10331061

KCAK 030851Z 21010KT 6SM HZ SCT250 M02/M06 A3021 RMK AO2 SLP242 T10221056 55005

KCAK 030751Z 23007KT 7SM FEW250 M02/M05 A3021 RMK AO2 SLP240 T10171050

KCAK 030651Z 22007KT 7SM FEW250 M03/M06 A3021 RMK AO2 SLP244 T10281056

To Charter a Jet Click here.